• Join FlightAware (Why Join?)
  • Login
  • US Flag 
08:08AM EDT


 

Airport Tracker/Info


-or-


 

Live Flight TrackerFlight Track Log ✈ RSP305 ✈ 01-Aug-2013 ✈ KIWA - KSJC

Flight Track Log - Related Links

Times and Time Zones

All times are in EDT time to prevent confusion due to time zone crossing. See the RSP305 flight status page for this flight to view local times or setup timezone preferences in your user account.

Time Position Orientation Groundspeed Altitude Reporting Facility
EDT Latitude Longitude Course Direction KTS MPH feet Rate Location/Type
06:20PM 33.2667 -111.6167 140° Southeast 175 201 3,300  Level Phoenix TRACON
06:21PM 33.2167 -111.5500 132° Southeast 223 257 5,100 1,680 Climbing Phoenix TRACON
06:22PM 33.1833 -111.6000 231° Southwest 221 254 6,900 1,260 Climbing Phoenix TRACON
06:23PM 33.1550 -111.6522 237° Southwest 234 269 7,500 600 Climbing Albuquerque Center
06:24PM 33.1222 -111.7328 244° Southwest 264 304 8,100 1,080 Climbing Albuquerque Center
06:25PM 33.7219 -112.5709 299° West  Level Estimated
06:25PM 33.1450 -111.8189 288° West 272 313 9,800  Level Albuquerque Center
06:26PM 33.1750 -111.9167 290° West 262 302 11,900 1,500 Climbing Albuquerque Center
06:27PM 33.2014 -111.9994 291° West 266 306 12,900 480 Climbing Albuquerque Center
06:28PM 33.2292 -112.0906 290° West 289 333 13,000  Climbing Albuquerque Center
06:29PM 33.2544 -112.1711 291° West 259 298 13,000 480 Level Albuquerque Center
06:30PM 33.2786 -112.2519 290° West 257 296 14,100 1,560 Climbing Albuquerque Center
06:31PM 33.3031 -112.3303 290° West 252 290 16,200 1,620 Climbing Albuquerque Center
06:32PM 33.3256 -112.4067 289° West 246 283 17,500 1,260 Climbing Albuquerque Center
06:33PM 33.3508 -112.4883 290° West 259 298 18,900 1,380 Climbing Albuquerque Center
06:34PM 33.3828 -112.5911 290° West 272 313 20,400 1,200 Climbing Albuquerque Center
06:35PM 33.4081 -112.6706 291° West 275 316 21,500 1,080 Climbing Albuquerque Center
06:36PM 33.4339 -112.7600 289° West 282 325 22,700 1,020 Climbing Albuquerque Center
06:37PM 33.4600 -112.8506 289° West 287 330 23,700 1,080 Climbing Albuquerque Center
06:38PM 33.4811 -112.9656 282° West 293 337 25,000 960 Climbing Albuquerque Center
06:39PM 33.5003 -113.0647 283° West 301 346 25,800 840 Climbing Albuquerque Center
06:40PM 33.5189 -113.1639 283° West 305 351 26,800 840 Climbing Albuquerque Center
06:41PM 33.5381 -113.2644 283° West 309 356 27,600 780 Climbing Albuquerque Center
06:42PM 33.5578 -113.3678 283° West 316 364 28,500 780 Climbing Albuquerque Center
06:43PM 33.5772 -113.4708 283° West 318 366 29,200 780 Climbing Albuquerque Center
06:45PM 33.5967 -113.5744 283° West 320 368 30,200 780 Climbing Albuquerque Center
06:46PM 33.6186 -113.6897 283° West 318 366 30,900 660 Climbing Albuquerque Center
06:47PM 33.6372 -113.7936 282° West 319 367 31,600 660 Climbing Albuquerque Center
06:48PM 33.6567 -113.8992 283° West 322 371 32,300 660 Climbing Albuquerque Center
06:49PM 33.6758 -114.0022 283° West 319 367 33,000 840 Climbing Albuquerque Center
06:50PM 33.6978 -114.1256 282° West 316 364 34,100 840 Climbing Albuquerque Center
06:51PM 33.7192 -114.2383 283° West 312 359 34,900 720 Climbing Los Angeles Center
06:52PM 33.7378 -114.3397 282° West 312 359 35,700 480 Climbing Los Angeles Center
06:53PM 33.7567 -114.4428 282° West 316 364 36,000 120 Climbing Los Angeles Center
06:54PM 33.7744 -114.5514 281° West 332 382 36,000  Level Los Angeles Center
06:55PM 33.7817 -114.6661 274° West 344 396 36,000  Level Los Angeles Center
06:56PM 33.7903 -114.8072 274° West 354 407 36,000  Level Los Angeles Center
06:57PM 33.7967 -114.9222 274° West 348 400 36,000  Level Los Angeles Center
06:58PM 33.8042 -115.0378 274° West 346 398 36,000  Level Los Angeles Center
06:59PM 33.8092 -115.1533 273° West 347 399 36,000  Level Los Angeles Center
07:00PM 33.8156 -115.2694 274° West 349 402 36,000  Level Los Angeles Center
07:01PM 33.8214 -115.3833 274° West 347 399 36,000  Level Los Angeles Center
07:02PM 33.8456 -115.5186 282° West 351 404 36,000  Level Los Angeles Center
07:03PM 33.8811 -115.6292 291° West 355 409 36,000  Level Los Angeles Center
07:04PM 33.9158 -115.7403 291° West 358 412 36,000  Level Los Angeles Center
07:05PM 33.9508 -115.8494 291° West 354 407 36,000  Level Los Angeles Center
07:06PM 33.9844 -115.9561 291° West 346 398 36,000  Level Los Angeles Center
07:07PM 34.0261 -116.0856 291° West 346 398 36,000  Level Los Angeles Center
07:08PM 34.0597 -116.1933 291° West 346 398 36,000  Level Los Angeles Center
07:09PM 34.0936 -116.2994 291° West 342 394 36,000  Level Los Angeles Center
07:10PM 34.1275 -116.4094 290° West 348 400 36,000  Level Los Angeles Center
07:11PM 34.1575 -116.5253 287° West 359 413 36,000  Level Los Angeles Center
07:12PM 34.1961 -116.6300 294° West 347 399 36,000  Level Los Angeles Center
07:14PM 34.2372 -116.7592 291° West 345 397 36,000  Level Los Angeles Center
07:15PM 34.2700 -116.8667 290° West 342 394 36,000  Level Los Angeles Center
07:16PM 34.3031 -116.9733 291° West 339 390 36,000  Level Los Angeles Center
07:17PM 34.3358 -117.0803 290° West 340 391 36,000  Level Los Angeles Center
07:18PM 34.3736 -117.2044 290° West 338 389 36,000  Level Los Angeles Center
07:19PM 34.4006 -117.2947 290° West 341 392 36,000  Level Los Angeles Center
07:20PM 34.4392 -117.4225 290° West 339 390 36,000  Level Los Angeles Center
07:21PM 34.4714 -117.5308 290° West 340 391 36,000  Level Los Angeles Center
07:22PM 34.5044 -117.6394 290° West 344 396 36,000  Level Los Angeles Center
07:23PM 34.5367 -117.7486 290° West 342 394 36,000  Level Los Angeles Center
07:24PM 34.5686 -117.8567 290° West 340 391 36,000  Level Los Angeles Center
07:25PM 34.6006 -117.9667 289° West 344 396 36,000  Level Los Angeles Center
07:26PM 34.6336 -118.0747 290° West 343 395 36,000  Level Los Angeles Center
07:27PM 34.6956 -118.1997 301° West 356 410 36,000  Level Los Angeles Center
07:28PM 34.7447 -118.3039 300° West 358 412 36,000  Level Los Angeles Center
07:29PM 34.7925 -118.4044 300° West 350 403 36,000  Level Los Angeles Center
07:30PM 34.8450 -118.5161 300° West 353 406 36,000  Level Los Angeles Center
07:31PM 34.8922 -118.6164 300° West 347 399 36,000  Level Los Angeles Center
07:32PM 34.9419 -118.7203 300° West 353 406 36,000  Level Los Angeles Center
07:33PM 34.9903 -118.8244 300° West 355 409 36,000  Level Los Angeles Center
07:34PM 35.0489 -118.9517 299° West 360 414 36,000  Level Los Angeles Center
07:35PM 35.0986 -119.0556 300° West 357 411 36,000  Level Los Angeles Center
07:36PM 35.1478 -119.1619 299° West 360 414 36,000  Level Los Angeles Center
07:37PM 35.1975 -119.2675 300° West 360 414 36,000  Level Los Angeles Center
07:38PM 35.2472 -119.3747 300° West 362 417 36,000  Level Los Angeles Center
07:39PM 35.2972 -119.4803 300° West 362 417 36,000  Level Los Angeles Center
07:40PM 35.3553 -119.6083 299° West 360 414 36,000  Level Los Angeles Center
07:41PM 35.4028 -119.7139 299° West 355 409 36,000  Level Los Angeles Center
07:43PM 35.4508 -119.8175 300° West 353 406 36,000  Level Los Angeles Center
07:44PM 35.4975 -119.9211 299° West 348 400 36,000  Level Los Angeles Center
07:45PM 35.5456 -120.0264 299° West 355 409 36,000  Level Los Angeles Center
07:46PM 35.5978 -120.1444 299° West 354 407 36,000  Level Los Angeles Center
07:46PM 35.6403 -120.2361 300° West 355 409 36,000  Level Oakland Center
07:48PM 35.6878 -120.3403 299° West 354 407 36,000  Level Oakland Center
07:49PM 35.7336 -120.4472 298° West 356 410 36,000  Level Oakland Center
07:50PM 35.7794 -120.5517 298° West 353 406 36,000 -120 Level Oakland Center
07:51PM 35.8356 -120.6783 299° West 352 405 35,800 -960 Descending Oakland Center
07:52PM 35.8844 -120.7886 299° West 365 420 34,100 -1,680 Descending Oakland Center
07:53PM 35.9342 -120.9006 299° West 372 428 32,400 -1,680 Descending Oakland Center
07:54PM 35.9861 -121.0108 300° West 375 432 30,700 -1,860 Descending Oakland Center
07:55PM 36.0736 -121.0881 325° Northwest 389 448 28,700 -1,980 Descending Oakland Center
07:56PM 36.1633 -121.1650 325° Northwest 393 452 26,700 -1,980 Descending Oakland Center
07:57PM 36.2508 -121.2408 325° Northwest 388 447 24,700 -2,160 Descending Oakland Center
07:58PM 36.3547 -121.3297 325° Northwest 380 437 22,300 -2,160 Descending Oakland Center
07:59PM 36.4375 -121.4019 325° Northwest 368 423 20,300 -1,980 Descending Oakland Center
08:00PM 36.5175 -121.4725 325° Northwest 356 410 18,300 -1,860 Descending Oakland Center
08:01PM 36.5947 -121.5386 326° Northwest 343 395 16,500 -1,920 Descending Oakland Center
08:02PM 36.6867 -121.5494 355° North 343 395 14,500 -2,100 Descending Oakland Center
08:03PM 36.7736 -121.5558 357° North 320 368 12,200 -2,280 Descending Oakland Center
08:04PM 36.8503 -121.5636 355° North 300 345 9,900 -2,100 Descending Oakland Center
08:05PM 36.9436 -121.5731 355° North 285 328 8,000 -1,440 Descending Oakland Center
08:06PM 37.0097 -121.6036 340° North 275 316 7,000 -1,440 Descending Oakland Center
08:07PM 37.0733 -121.6514 329° Northwest 272 313 5,100 -1,020 Descending Oakland Center
08:08PM 37.1367 -121.6953 331° Northwest 267 307 5,000 -300 Descending Oakland Center
08:09PM 37.1839 -121.7331 327° Northwest 227 261 4,600 -780 Descending Oakland Center
08:10PM 37.2242 -121.7781 318° Northwest 203 234 3,500 -1,080 Descending Oakland Center
08:11PM 37.2642 -121.8233 318° Northwest 197 227 2,500 -1,020 Descending Oakland Center
08:12PM 37.3033 -121.8658 319° Northwest 192 221 1,500 -840 Descending Oakland Center
08:13PM 37.3319 -121.8956 320° Northwest 159 183 800 -720 Descending Oakland Center
08:14PM 37.3578 -121.9247 318° Northwest 123 142 100 -720 Descending Oakland Center
08:16PM 37.3500 -121.9167 North  Level FlightAware Approximate
08:23PM 37.3627 -121.9291 North  Level Estimated